Colville Lake, Canada
Current Conditions -  °F | °C
As of 3:00 AM on Tuesday 21 Oct 2014 (Local Time) from CYVQ Reporting Station
Light Snow Light Snow  
Wind Chill: 18°   Ceiling: 3000
Heat Index: 28°   Visibility: 4mi
Dew Point: 27°   Wind: 13mph
Humidity: 93%   Direction: 290°WNW
Pressure: 29.44"   Gusts: 18mph
Location:  67.03°N, 126.12°W
Report Text: CYVQ 210900Z 29011G16KT 4SM -SN FEW015 BKN030 OVC050 M02/M03 A2944 RMK SC2SC5SC1 SLP976
Loading
Personal Weather Stations






























Interactive Weather Map
Tropical Storm Tracking
New forecast layout! Learn more

10-Day Weather Forecast

Advertisements
Track Severe Weather on mobile